createdAt,value
2018-09-18T00:00:11.497Z,100152.20
2018-09-18T00:02:42.456Z,100148.73
2018-09-18T00:05:13.392Z,100151.78
2018-09-18T00:07:44.457Z,100147.66
2018-09-18T00:10:15.451Z,100151.67
2018-09-18T00:12:46.493Z,100154.95
2018-09-18T00:15:17.438Z,100147.58
2018-09-18T00:17:48.478Z,100143.88
2018-09-18T00:20:19.445Z,100144.37
2018-09-18T00:22:50.472Z,100144.37
2018-09-18T00:25:21.445Z,100145.05
2018-09-18T00:27:52.493Z,100138.53
2018-09-18T00:30:23.697Z,100140.91
2018-09-18T00:32:54.500Z,100141.94
2018-09-18T00:35:25.433Z,100139.44
2018-09-18T00:37:56.465Z,100141.45
2018-09-18T00:40:27.429Z,100134.05
2018-09-18T00:42:58.448Z,100133.27
2018-09-18T00:45:29.385Z,100141.95
2018-09-18T00:48:00.425Z,100134.28
2018-09-18T00:50:31.441Z,100134.60
2018-09-18T00:53:02.397Z,100137.95
2018-09-18T00:55:33.433Z,100137.64
2018-09-18T00:58:04.448Z,100137.16
2018-09-18T01:00:35.433Z,100139.65
2018-09-18T01:03:06.471Z,100138.48
2018-09-18T01:05:37.460Z,100135.81
2018-09-18T01:08:08.506Z,100128.30
2018-09-18T01:10:39.453Z,100119.61
2018-09-18T01:13:10.504Z,100122.95
2018-09-18T01:15:41.448Z,100118.14
2018-09-18T01:18:12.453Z,100123.29
2018-09-18T01:20:43.460Z,100120.30
2018-09-18T01:23:14.400Z,100118.61
2018-09-18T01:25:45.453Z,100109.13
2018-09-18T01:28:16.445Z,100113.94
2018-09-18T01:30:47.452Z,100115.80
2018-09-18T01:33:18.468Z,100120.12
2018-09-18T01:35:49.480Z,100119.32
2018-09-18T01:38:20.433Z,100112.34
2018-09-18T01:40:51.449Z,100110.33
2018-09-18T01:43:22.464Z,100113.00
2018-09-18T01:45:53.432Z,100113.67
2018-09-18T01:48:24.417Z,100117.86
2018-09-18T01:50:55.433Z,100116.17
2018-09-18T01:53:26.406Z,100118.00
2018-09-18T01:55:57.504Z,100106.16
2018-09-18T01:58:28.480Z,100109.53
2018-09-18T02:00:59.435Z,100108.87
2018-09-18T02:03:30.476Z,100099.34
2018-09-18T02:06:01.440Z,100101.03
2018-09-18T02:08:32.453Z,100102.36
2018-09-18T02:11:03.434Z,100100.68
2018-09-18T02:13:34.467Z,100105.06
2018-09-18T02:16:05.446Z,100104.89
2018-09-18T02:18:36.444Z,100102.22
2018-09-18T02:21:07.393Z,100097.38
2018-09-18T02:23:38.400Z,100095.87
2018-09-18T02:26:09.450Z,100093.20
2018-09-18T02:28:40.421Z,100101.37
2018-09-18T02:31:11.389Z,100096.23
2018-09-18T02:33:42.409Z,100095.07
2018-09-18T02:36:13.390Z,100100.23
2018-09-18T02:38:44.397Z,100096.23
2018-09-18T02:41:15.425Z,100095.22
2018-09-18T02:43:46.412Z,100092.88
2018-09-18T02:46:17.449Z,100093.37
2018-09-18T02:48:48.450Z,100093.21
2018-09-18T02:51:19.462Z,100093.05
2018-09-18T02:53:50.433Z,100095.56
2018-09-18T02:56:21.441Z,100095.05
2018-09-18T02:58:52.457Z,100093.56
2018-09-18T03:01:23.525Z,100088.72
2018-09-18T03:03:54.473Z,100090.72
2018-09-18T03:06:25.440Z,100091.36
2018-09-18T03:08:56.397Z,100096.84
2018-09-18T03:11:27.456Z,100097.16
2018-09-18T03:13:58.456Z,100100.48
2018-09-18T03:16:29.453Z,100091.16
2018-09-18T03:19:00.454Z,100095.14
2018-09-18T03:21:31.445Z,100103.98
2018-09-18T03:24:02.444Z,100107.80
2018-09-18T03:26:33.401Z,100102.77
2018-09-18T03:29:04.437Z,100098.70
2018-09-18T03:31:35.434Z,100100.25
2018-09-18T03:34:06.421Z,100099.89
2018-09-18T03:36:37.429Z,100100.52
2018-09-18T03:39:08.997Z,100103.95
2018-09-18T03:41:40.100Z,100103.11
2018-09-18T03:44:11.355Z,100099.66
2018-09-18T03:46:42.452Z,100099.48
2018-09-18T03:49:13.482Z,100105.17
2018-09-18T03:51:44.410Z,100101.86
2018-09-18T03:54:15.441Z,100104.00
2018-09-18T03:56:46.449Z,100103.09
2018-09-18T03:59:17.430Z,100094.28
2018-09-18T04:01:48.393Z,100096.67
2018-09-18T04:04:19.381Z,100090.02
2018-09-18T04:06:50.465Z,100099.03
2018-09-18T04:09:21.647Z,100099.00
2018-09-18T04:11:52.612Z,100101.83
2018-09-18T04:14:23.681Z,100103.70
2018-09-18T04:16:54.682Z,100100.29
2018-09-18T04:19:32.457Z,100101.92
2018-09-18T04:22:03.619Z,100102.80
2018-09-18T04:24:35.506Z,100103.30
2018-09-18T04:27:06.802Z,100100.36
2018-09-18T04:29:39.527Z,100102.95
2018-09-18T04:32:10.590Z,100093.00
2018-09-18T04:34:41.617Z,100094.71
2018-09-18T04:37:12.667Z,100094.16
2018-09-18T04:39:43.577Z,100089.94
2018-09-18T04:42:14.608Z,100096.98
2018-09-18T04:44:45.617Z,100095.72
2018-09-18T04:47:17.217Z,100095.50
2018-09-18T04:49:48.438Z,100095.50
2018-09-18T04:52:19.658Z,100094.87
2018-09-18T04:54:50.663Z,100097.86
2018-09-18T04:57:22.256Z,100094.31
2018-09-18T04:59:52.520Z,100090.97
2018-09-18T05:02:23.493Z,100094.94
2018-09-18T05:04:54.870Z,100095.83
2018-09-18T05:07:26.354Z,100095.64
2018-09-18T05:09:57.504Z,100098.49
2018-09-18T05:12:28.570Z,100091.05
2018-09-18T05:18:12.593Z,100110.53
2018-09-18T05:20:43.660Z,100095.42
2018-09-18T05:23:14.739Z,100102.03
2018-09-18T05:25:45.726Z,100097.19
2018-09-18T05:28:16.603Z,100117.44
2018-09-18T05:30:47.716Z,100118.74
2018-09-18T05:33:18.686Z,100122.45
2018-09-18T05:38:33.558Z,100119.98
2018-09-18T05:41:04.672Z,100124.98
2018-09-18T05:43:35.682Z,100120.42
2018-09-18T05:46:06.838Z,100125.94
2018-09-18T05:48:38.241Z,100123.05
2018-09-18T05:51:08.387Z,100126.62
2018-09-18T05:53:39.457Z,100121.81
2018-09-18T05:56:10.486Z,100123.24
2018-09-18T05:58:41.617Z,100125.86
2018-09-18T06:01:12.550Z,100122.92
2018-09-18T06:03:43.818Z,100118.92
2018-09-18T06:06:14.589Z,100129.82
2018-09-18T06:08:45.529Z,100132.23
2018-09-18T06:11:16.489Z,100147.34
2018-09-18T06:13:47.910Z,100143.24
2018-09-18T06:16:19.032Z,100143.91
2018-09-18T06:18:50.634Z,100152.73
2018-09-18T06:21:21.537Z,100155.64
2018-09-18T06:23:52.505Z,100151.11
2018-09-18T06:26:23.565Z,100152.14
2018-09-18T06:28:54.497Z,100164.98
2018-09-18T06:31:25.510Z,100153.59
2018-09-18T06:33:59.626Z,100148.54
2018-09-18T06:36:30.511Z,100133.73
2018-09-18T06:39:01.477Z,100146.67
2018-09-18T06:41:32.486Z,100146.92
2018-09-18T06:44:03.488Z,100140.55
2018-09-18T06:46:34.486Z,100148.06
2018-09-18T06:49:05.485Z,100146.41
2018-09-18T06:51:36.478Z,100145.50
2018-09-18T06:54:07.453Z,100157.46
2018-09-18T06:56:38.466Z,100164.34
2018-09-18T06:59:09.445Z,100159.53
2018-09-18T07:01:40.441Z,100150.08
2018-09-18T07:04:11.460Z,100154.75
2018-09-18T07:06:42.445Z,100158.28
2018-09-18T07:09:13.494Z,100165.14
2018-09-18T07:11:44.469Z,100163.10
2018-09-18T07:14:15.476Z,100156.75
2018-09-18T07:16:46.501Z,100164.42
2018-09-18T07:19:18.294Z,100156.59
2018-09-18T07:21:49.375Z,100159.72
2018-09-18T07:24:20.485Z,100156.91
2018-09-18T07:26:51.490Z,100160.73
2018-09-18T07:29:22.514Z,100159.53
2018-09-18T07:31:53.436Z,100165.03
2018-09-18T07:34:24.478Z,100161.55
2018-09-18T07:36:55.490Z,100159.82
2018-09-18T07:39:26.452Z,100161.74
2018-09-18T07:41:57.482Z,100153.64
2018-09-18T07:44:28.437Z,100157.23
2018-09-18T07:46:59.433Z,100157.87
2018-09-18T07:49:30.481Z,100160.36
2018-09-18T07:52:01.523Z,100164.20
2018-09-18T07:54:32.492Z,100162.41
2018-09-18T07:57:03.500Z,100160.55
2018-09-18T07:59:34.474Z,100156.99
2018-09-18T08:02:05.490Z,100161.70
2018-09-18T08:04:36.452Z,100152.47
2018-09-18T08:07:08.786Z,100148.84
2018-09-18T08:09:39.585Z,100152.60
2018-09-18T08:12:10.549Z,100149.95
2018-09-18T08:14:41.506Z,100146.56
2018-09-18T08:17:12.508Z,100147.58
2018-09-18T08:19:43.596Z,100144.14
2018-09-18T08:22:14.506Z,100150.34
2018-09-18T08:24:45.463Z,100139.95
2018-09-18T08:27:16.535Z,100139.11
2018-09-18T08:29:47.494Z,100136.63
2018-09-18T08:32:18.433Z,100143.68
2018-09-18T08:34:49.481Z,100146.91
2018-09-18T08:37:20.492Z,100145.52
2018-09-18T08:39:51.516Z,100144.41
2018-09-18T08:42:22.487Z,100141.65
2018-09-18T08:44:53.486Z,100130.20
2018-09-18T08:47:24.470Z,100135.91
2018-09-18T08:49:55.505Z,100131.21
2018-09-18T08:52:26.497Z,100127.45
2018-09-18T08:54:57.493Z,100135.84
2018-09-18T08:57:28.509Z,100125.16
2018-09-18T08:59:59.440Z,100122.55
2018-09-18T09:02:30.462Z,100126.30
2018-09-18T09:05:01.449Z,100123.98
2018-09-18T09:07:32.606Z,100120.42
2018-09-18T09:10:03.629Z,100125.85
2018-09-18T09:12:34.471Z,100122.89
2018-09-18T09:15:05.550Z,100123.25
2018-09-18T09:17:36.473Z,100122.66
2018-09-18T09:20:07.506Z,100119.45
2018-09-18T09:22:38.508Z,100124.19
2018-09-18T09:25:09.501Z,100110.20
2018-09-18T09:27:40.879Z,100114.48
2018-09-18T09:30:11.728Z,100120.83
2018-09-18T09:32:42.587Z,100117.75
2018-09-18T09:35:13.482Z,100112.45
2018-09-18T09:37:44.562Z,100111.87
2018-09-18T09:40:15.485Z,100109.61
2018-09-18T09:45:30.542Z,100118.66
2018-09-18T09:48:01.463Z,100108.19
2018-09-18T09:50:32.503Z,100104.45
2018-09-18T09:53:03.501Z,100100.94
2018-09-18T09:55:34.603Z,100100.63
2018-09-18T09:58:05.506Z,100107.17
2018-09-18T10:00:42.375Z,100098.94
2018-09-18T10:03:13.566Z,100095.91
2018-09-18T10:05:44.510Z,100094.55
2018-09-18T10:08:15.463Z,100094.42
2018-09-18T10:10:46.607Z,100087.65
2018-09-18T10:13:17.494Z,100082.45
2018-09-18T10:15:48.477Z,100079.35
2018-09-18T10:18:19.639Z,100080.47
2018-09-18T10:20:50.493Z,100076.70
2018-09-18T10:23:21.499Z,100075.97
2018-09-18T10:25:52.523Z,100078.75
2018-09-18T10:28:23.603Z,100073.98
2018-09-18T10:30:54.650Z,100068.70
2018-09-18T10:33:25.544Z,100070.14
2018-09-18T10:35:56.535Z,100071.20
2018-09-18T10:38:27.571Z,100069.60
2018-09-18T10:40:58.555Z,100057.17
2018-09-18T10:43:29.567Z,100056.30
2018-09-18T10:46:00.485Z,100051.69
2018-09-18T10:48:31.486Z,100057.41
2018-09-18T10:51:02.494Z,100050.68
2018-09-18T10:53:33.530Z,100047.62
2018-09-18T10:56:04.471Z,100046.30
2018-09-18T10:58:35.505Z,100036.78
2018-09-18T11:01:06.585Z,100028.52
2018-09-18T11:03:37.717Z,100038.47
2018-09-18T11:06:08.704Z,100023.42
2018-09-18T11:08:39.567Z,100036.06
2018-09-18T11:11:10.544Z,100028.23
2018-09-18T11:13:41.513Z,100026.48
2018-09-18T11:16:12.590Z,100021.98
2018-09-18T11:18:43.487Z,100015.68
2018-09-18T11:21:14.500Z,100014.26
2018-09-18T11:23:45.607Z,100019.89
2018-09-18T11:26:16.545Z,100012.59
2018-09-18T11:28:47.536Z,100010.02
2018-09-18T11:31:18.492Z,100014.86
2018-09-18T11:33:49.524Z,100016.02
2018-09-18T11:36:20.530Z,100009.95
2018-09-18T11:38:51.501Z,100014.65
2018-09-18T11:41:22.491Z,99997.27
2018-09-18T11:43:53.482Z,99998.91
2018-09-18T11:46:24.500Z,100004.69
2018-09-18T11:48:55.501Z,100003.50
2018-09-18T11:51:26.566Z,99994.84
2018-09-18T11:53:57.538Z,100002.30
2018-09-18T11:56:28.494Z,99995.09
2018-09-18T11:58:59.487Z,99986.51
2018-09-18T12:01:30.458Z,99985.90
2018-09-18T12:04:01.488Z,99986.83
2018-09-18T12:06:32.482Z,99986.27
2018-09-18T12:09:03.573Z,99978.91
2018-09-18T12:11:34.528Z,99982.02
2018-09-18T12:14:05.694Z,99974.02
2018-09-18T12:16:36.565Z,99974.83
2018-09-18T12:19:07.714Z,99976.56
2018-09-18T12:21:38.565Z,99994.66
2018-09-18T12:24:09.577Z,99974.61
2018-09-18T12:26:40.502Z,99971.30
2018-09-18T12:29:11.433Z,99966.78
2018-09-18T12:31:42.514Z,99963.20
2018-09-18T12:34:13.518Z,99963.39
2018-09-18T12:36:44.452Z,99959.25
2018-09-18T12:39:15.504Z,99954.13
2018-09-18T12:41:46.503Z,99956.09
2018-09-18T12:44:17.497Z,99950.58
2018-09-18T12:46:48.485Z,99952.14
2018-09-18T12:49:19.639Z,99943.84
2018-09-18T12:51:50.491Z,99950.77
2018-09-18T12:54:21.504Z,99950.36
2018-09-18T12:56:52.516Z,99943.70
2018-09-18T12:59:23.642Z,99945.95
2018-09-18T13:01:54.526Z,99949.46
2018-09-18T13:04:25.511Z,99943.31
2018-09-18T13:06:56.536Z,99939.48
2018-09-18T13:09:27.418Z,99934.98
2018-09-18T13:11:58.468Z,99938.43
2018-09-18T13:14:29.509Z,99939.50
2018-09-18T13:17:00.530Z,99941.13
2018-09-18T13:19:31.482Z,99941.06
2018-09-18T13:22:02.523Z,99943.33
2018-09-18T13:24:33.528Z,99935.83
2018-09-18T13:27:04.482Z,99934.23
2018-09-18T13:29:36.519Z,99929.44
2018-09-18T13:32:07.710Z,99923.86
2018-09-18T13:34:38.627Z,99926.47
2018-09-18T13:37:09.577Z,99924.75
2018-09-18T13:39:40.508Z,99927.20
2018-09-18T13:42:11.477Z,99918.39
2018-09-18T13:44:42.539Z,99908.09
2018-09-18T13:47:14.489Z,99915.20
2018-09-18T13:49:45.505Z,99901.84
2018-09-18T13:52:16.491Z,99893.73
2018-09-18T13:54:47.546Z,99892.82
2018-09-18T13:57:18.857Z,99893.48
2018-09-18T13:59:50.059Z,99891.91
2018-09-18T14:02:21.485Z,99891.47
2018-09-18T14:04:52.577Z,99882.86
2018-09-18T14:07:23.798Z,99886.03
2018-09-18T14:09:54.646Z,99877.09
2018-09-18T14:12:25.512Z,99875.94
2018-09-18T14:14:57.278Z,99876.75
2018-09-18T14:17:27.440Z,99866.86
2018-09-18T14:19:58.521Z,99863.93
2018-09-18T14:22:33.038Z,99861.73
2018-09-18T14:25:04.415Z,99869.16
2018-09-18T14:27:35.730Z,99866.73
2018-09-18T14:30:07.434Z,99869.91
2018-09-18T14:32:39.235Z,99864.97
2018-09-18T14:35:09.438Z,99867.23
2018-09-18T14:37:40.565Z,99878.23
2018-09-18T14:40:11.558Z,99868.39
2018-09-18T14:42:42.498Z,99876.06
2018-09-18T14:45:13.533Z,99861.56
2018-09-18T14:47:44.496Z,99867.83
2018-09-18T14:50:15.513Z,99858.23
2018-09-18T14:52:46.446Z,99853.08
2018-09-18T14:55:17.507Z,99856.58
2018-09-18T14:57:48.463Z,99860.84
2018-09-18T15:00:19.533Z,99862.72
2018-09-18T15:02:50.496Z,99847.45
2018-09-18T15:05:21.469Z,99847.47
2018-09-18T15:07:52.445Z,99850.41
2018-09-18T15:10:23.542Z,99855.06
2018-09-18T15:12:54.650Z,99844.68
2018-09-18T15:15:25.612Z,99849.29
2018-09-18T15:17:56.498Z,99845.80
2018-09-18T15:20:27.462Z,99840.92
2018-09-18T15:22:59.549Z,99853.89
2018-09-18T15:25:30.509Z,99852.84
2018-09-18T15:28:01.469Z,99851.23
2018-09-18T15:30:32.622Z,99859.91
2018-09-18T15:33:04.041Z,99852.55
2018-09-18T15:35:35.365Z,99858.84
2018-09-18T15:38:06.366Z,99848.97
2018-09-18T15:40:37.433Z,99854.34
2018-09-18T15:43:08.526Z,99853.83
2018-09-18T15:45:39.566Z,99850.94
2018-09-18T15:48:10.454Z,99857.30
2018-09-18T15:50:41.461Z,99859.11
2018-09-18T15:53:12.437Z,99859.65
2018-09-18T15:55:43.493Z,99859.30
2018-09-18T15:58:14.418Z,99857.63
2018-09-18T16:00:45.467Z,99858.66
2018-09-18T16:03:16.490Z,99864.64
2018-09-18T16:05:47.466Z,99861.88
2018-09-18T16:08:18.518Z,99861.59
2018-09-18T16:10:49.498Z,99866.19
2018-09-18T16:13:20.488Z,99859.86
2018-09-18T16:15:51.648Z,99862.58
2018-09-18T16:18:22.720Z,99859.66
2018-09-18T16:20:54.247Z,99858.11
2018-09-18T16:23:24.521Z,99855.09
2018-09-18T16:25:55.605Z,99848.98
2018-09-18T16:28:26.704Z,99853.66
2018-09-18T16:30:57.879Z,99858.55
2018-09-18T16:33:29.021Z,99853.66
2018-09-18T16:36:00.516Z,99855.93
2018-09-18T16:38:31.746Z,99854.00
2018-09-18T16:41:02.714Z,99852.67
2018-09-18T16:43:34.046Z,99849.88
2018-09-18T16:46:05.503Z,99849.88
2018-09-18T16:48:36.653Z,99852.53
2018-09-18T16:51:07.681Z,99856.78
2018-09-18T16:53:38.591Z,99855.87
2018-09-18T16:56:10.800Z,99848.56
2018-09-18T16:58:41.882Z,99851.17
2018-09-18T17:01:12.805Z,99850.83
2018-09-18T17:03:44.353Z,99854.34
2018-09-18T17:08:59.728Z,99868.05
2018-09-18T17:11:30.764Z,99873.05
2018-09-18T17:14:02.434Z,99879.93
2018-09-18T17:16:34.056Z,99878.27
2018-09-18T17:19:05.513Z,99889.33
2018-09-18T17:21:38.704Z,99890.65
2018-09-18T17:24:10.220Z,99901.69
2018-09-18T17:26:40.588Z,99902.00
2018-09-18T17:29:11.736Z,99901.16
2018-09-18T17:31:42.898Z,99906.92
2018-09-18T17:34:14.408Z,99907.13
2018-09-18T17:36:45.626Z,99902.73
2018-09-18T17:39:16.576Z,99911.69
2018-09-18T17:41:47.868Z,99912.41
2018-09-18T17:44:18.805Z,99907.96
2018-09-18T17:46:49.813Z,99908.73
2018-09-18T17:49:21.003Z,99909.30
2018-09-18T17:51:53.020Z,99907.58
2018-09-18T17:54:24.471Z,99914.84
2018-09-18T17:56:55.908Z,99922.58
2018-09-18T17:59:26.827Z,99921.03
2018-09-18T18:01:57.826Z,99921.50
2018-09-18T18:04:29.203Z,99928.94
2018-09-18T18:07:00.587Z,99937.02
2018-09-18T18:09:31.706Z,99935.85
2018-09-18T18:12:02.790Z,99933.08
2018-09-18T18:14:33.724Z,99940.30
2018-09-18T18:17:04.765Z,99938.30
2018-09-18T18:19:36.229Z,99952.16
2018-09-18T18:22:08.365Z,99945.88
2018-09-18T18:24:39.527Z,99958.88
2018-09-18T18:27:10.599Z,99955.89
2018-09-18T18:29:42.002Z,99966.70
2018-09-18T18:32:13.252Z,99972.52
2018-09-18T18:34:43.827Z,99972.70
2018-09-18T18:37:14.697Z,99978.75
2018-09-18T18:39:46.246Z,99981.20
2018-09-18T18:42:16.596Z,99985.55
2018-09-18T18:44:48.024Z,99984.69
2018-09-18T18:47:19.470Z,99987.70
2018-09-18T18:52:40.906Z,99989.92
2018-09-18T18:55:12.376Z,99998.04
2018-09-18T18:57:43.619Z,99996.86
2018-09-18T19:00:14.645Z,99996.86
2018-09-18T19:02:45.730Z,99998.12
2018-09-18T19:05:16.830Z,100003.80
2018-09-18T19:07:48.223Z,100007.67
2018-09-18T19:10:18.557Z,100012.16
2018-09-18T19:12:49.568Z,100009.55
2018-09-18T19:15:20.630Z,100015.12
2018-09-18T19:17:52.338Z,100021.55
2018-09-18T19:20:23.476Z,100016.72
2018-09-18T19:22:54.729Z,100023.02
2018-09-18T19:25:25.774Z,100023.61
2018-09-18T19:27:56.767Z,100022.20
2018-09-18T19:30:28.234Z,100028.41
2018-09-18T19:32:58.680Z,100022.28
2018-09-18T19:35:29.674Z,100032.30
2018-09-18T19:38:01.021Z,100025.25
2018-09-18T19:40:32.450Z,100025.73
2018-09-18T19:43:03.812Z,100020.27
2018-09-18T19:45:35.038Z,100025.30
2018-09-18T19:48:06.362Z,100026.09
2018-09-18T19:50:37.430Z,100032.66
2018-09-18T19:53:08.441Z,100033.45
2018-09-18T19:55:39.439Z,100031.57
2018-09-18T19:58:10.458Z,100035.62
2018-09-18T20:00:41.537Z,100033.67
2018-09-18T20:03:12.571Z,100034.14
2018-09-18T20:05:43.469Z,100042.80
2018-09-18T20:08:14.565Z,100040.02
2018-09-18T20:10:45.473Z,100047.72
2018-09-18T20:13:16.516Z,100047.78
2018-09-18T20:15:47.490Z,100052.38
2018-09-18T20:18:18.533Z,100056.38
2018-09-18T20:20:49.571Z,100066.14
2018-09-18T20:23:20.461Z,100056.23
2018-09-18T20:25:51.493Z,100057.05
2018-09-18T20:28:22.462Z,100059.14
2018-09-18T20:30:53.425Z,100057.94
2018-09-18T20:33:24.490Z,100059.48
2018-09-18T20:35:55.486Z,100060.27
2018-09-18T20:38:26.462Z,100055.89
2018-09-18T20:40:57.474Z,100059.86
2018-09-18T20:43:28.443Z,100056.57
2018-09-18T20:45:59.539Z,100065.20
2018-09-18T20:48:30.670Z,100067.89
2018-09-18T20:51:01.541Z,100068.70
2018-09-18T20:53:32.816Z,100074.64
2018-09-18T20:56:03.649Z,100081.77
2018-09-18T20:58:35.385Z,100083.63
2018-09-18T21:01:06.538Z,100088.98
2018-09-18T21:03:37.516Z,100098.67
2018-09-18T21:06:08.505Z,100094.39
2018-09-18T21:08:39.488Z,100101.89
2018-09-18T21:11:10.502Z,100102.80
2018-09-18T21:13:41.492Z,100103.92
2018-09-18T21:16:12.510Z,100103.88
2018-09-18T21:18:43.481Z,100104.62
2018-09-18T21:21:14.458Z,100103.84
2018-09-18T21:23:45.538Z,100107.38
2018-09-18T21:26:18.486Z,100110.59
2018-09-18T21:28:50.783Z,100125.11
2018-09-18T21:31:21.560Z,100124.80
2018-09-18T21:33:52.482Z,100125.36
2018-09-18T21:36:23.497Z,100132.63
2018-09-18T21:38:54.494Z,100141.45
2018-09-18T21:41:25.458Z,100142.47
2018-09-18T21:43:56.493Z,100138.94
2018-09-18T21:46:27.457Z,100139.92
2018-09-18T21:48:58.489Z,100141.16
2018-09-18T21:51:29.465Z,100138.58
2018-09-18T21:54:00.502Z,100140.66
2018-09-18T21:56:31.626Z,100143.47
2018-09-18T21:59:02.507Z,100146.17
2018-09-18T22:01:33.444Z,100150.66
2018-09-18T22:04:04.495Z,100146.72
2018-09-18T22:06:35.662Z,100145.05
2018-09-18T22:10:36.406Z,100148.07
2018-09-18T22:13:07.484Z,100151.72
2018-09-18T22:15:38.559Z,100148.29
2018-09-18T22:18:09.584Z,100137.81
2018-09-18T22:20:40.608Z,100143.84
2018-09-18T22:23:11.474Z,100141.35
2018-09-18T22:25:42.460Z,100142.01
2018-09-18T22:28:13.561Z,100137.41
2018-09-18T22:30:44.477Z,100137.81
2018-09-18T22:33:15.485Z,100139.60
2018-09-18T22:35:46.504Z,100140.84
2018-09-18T22:38:17.486Z,100139.55
2018-09-18T22:40:48.532Z,100143.05
2018-09-18T22:43:19.483Z,100145.97
2018-09-18T22:45:50.471Z,100151.56
2018-09-18T22:48:21.521Z,100150.55
2018-09-18T22:50:52.492Z,100147.03
2018-09-18T22:53:23.490Z,100146.48
2018-09-18T22:55:54.493Z,100144.94
2018-09-18T22:58:25.435Z,100147.83
2018-09-18T23:00:56.509Z,100149.70
2018-09-18T23:03:27.450Z,100152.19
2018-09-18T23:05:58.453Z,100158.94
2018-09-18T23:08:29.453Z,100156.85
2018-09-18T23:11:00.487Z,100162.88
2018-09-18T23:13:31.482Z,100162.25
2018-09-18T23:16:02.497Z,100160.69
2018-09-18T23:18:33.499Z,100164.62
2018-09-18T23:21:04.433Z,100160.99
2018-09-18T23:23:35.452Z,100159.32
2018-09-18T23:26:06.498Z,100157.05
2018-09-18T23:28:37.443Z,100157.26
2018-09-18T23:31:08.449Z,100156.59
2018-09-18T23:33:39.406Z,100165.87
2018-09-18T23:36:10.472Z,100161.38
2018-09-18T23:38:41.397Z,100165.53
2018-09-18T23:41:12.426Z,100165.83
2018-09-18T23:43:43.437Z,100169.07
2018-09-18T23:46:14.495Z,100167.39
2018-09-18T23:48:45.484Z,100168.52
2018-09-18T23:51:16.445Z,100166.20
2018-09-18T23:53:47.446Z,100165.86
2018-09-18T23:56:18.485Z,100168.72
2018-09-18T23:58:49.472Z,100168.80
